Time;durP1;ratioP1;P1;durP2;ratioP2;P2;SDS_P1;SDS_P2;PMS_P1;PMS_P2;Temp;Humidity;BMP_temperature;BMP_pressure;BME280_temperature;BME280_humidity;BME280_pressure;Samples;Min_cycle;Max_cycle;Signal;HPM_P1;HPM_P2
2021/09/17 00:00:44;;;;;;;7.93;7.23;;;15.20;95.20;;;;;;5016896;28;20482;-74
2021/09/17 00:03:11;;;;;;;8.00;7.20;;;15.30;95.60;;;;;;5017245;28;20485;-75
2021/09/17 00:05:38;;;;;;;7.10;6.50;;;15.30;95.30;;;;;;5020566;28;20432;-76
2021/09/17 00:08:06;;;;;;;9.30;7.37;;;15.20;95.30;;;;;;5017455;28;20471;-73
2021/09/17 00:10:33;;;;;;;11.20;7.33;;;15.30;95.30;;;;;;5017106;28;20491;-76
2021/09/17 00:13:00;;;;;;;7.40;6.70;;;15.30;95.20;;;;;;5016485;28;20497;-76
2021/09/17 00:15:28;;;;;;;9.97;7.67;;;15.30;95.00;;;;;;5014998;28;20484;-75
2021/09/17 00:17:56;;;;;;;8.60;7.70;;;15.30;95.10;;;;;;5014804;28;20547;-75
2021/09/17 00:20:24;;;;;;;6.50;5.90;;;15.30;94.70;;;;;;5014543;28;20457;-75
2021/09/17 00:22:51;;;;;;;7.10;6.43;;;15.20;94.50;;;;;;5020454;28;20455;-75
2021/09/17 00:25:18;;;;;;;7.43;6.30;;;15.20;94.60;;;;;;5026498;28;20487;-75
2021/09/17 00:27:45;;;;;;;8.07;7.00;;;15.20;94.40;;;;;;5014822;28;20487;-74
2021/09/17 00:30:14;;;;;;;6.57;5.97;;;15.10;94.30;;;;;;5014699;28;20552;-75
2021/09/17 00:33:01;;;;;;;6.67;6.07;;;15.10;94.50;;;;;;5016748;28;20952;-74
2021/09/17 00:35:43;;;;;;;7.17;6.47;;;15.10;94.50;;;;;;5016664;28;20437;-74
2021/09/17 00:38:11;;;;;;;10.57;6.70;;;15.10;94.40;;;;;;5021515;28;20510;-76
2021/09/17 00:40:38;;;;;;;7.03;6.30;;;15.10;94.30;;;;;;5016937;28;20465;-74
2021/09/17 00:43:05;;;;;;;7.45;6.75;;;15.10;94.20;;;;;;5014803;28;20457;-76
2021/09/17 00:45:33;;;;;;;6.87;6.27;;;15.20;93.80;;;;;;5015337;28;20312;-76
2021/09/17 00:48:01;;;;;;;6.73;6.10;;;15.20;93.40;;;;;;5014088;28;20472;-74
2021/09/17 00:50:28;;;;;;;8.47;6.70;;;15.20;93.20;;;;;;5013988;28;20499;-74
2021/09/17 00:52:56;;;;;;;7.37;6.60;;;15.20;93.40;;;;;;5013846;28;20927;-74
2021/09/17 00:55:24;;;;;;;6.77;6.10;;;15.20;93.40;;;;;;5013618;28;20467;-74
2021/09/17 00:57:51;;;;;;;7.57;6.80;;;15.20;93.40;;;;;;5013561;28;20911;-74
2021/09/17 01:00:19;;;;;;;7.20;6.53;;;15.20;93.40;;;;;;5012199;28;20467;-76
2021/09/17 01:02:46;;;;;;;7.73;7.03;;;15.30;93.40;;;;;;5031029;28;20462;-76
2021/09/17 01:05:15;;;;;;;7.73;7.03;;;15.30;93.50;;;;;;5024932;28;20545;-76
2021/09/17 01:07:43;;;;;;;8.83;7.93;;;15.30;93.50;;;;;;5013859;28;21042;-76
2021/09/17 01:10:10;;;;;;;7.60;6.90;;;15.30;93.50;;;;;;5013294;28;20528;-76
2021/09/17 01:12:38;;;;;;;8.50;7.50;;;15.30;93.50;;;;;;5015085;28;20461;-74
2021/09/17 01:15:08;;;;;;;8.50;7.70;;;15.30;93.50;;;;;;5013364;28;20524;-75
2021/09/17 01:17:37;;;;;;;9.53;7.00;;;15.40;93.50;;;;;;5013478;28;20477;-75
2021/09/17 01:20:05;;;;;;;8.70;7.87;;;15.40;93.90;;;;;;5013975;28;20506;-75
2021/09/17 01:22:33;;;;;;;7.93;6.57;;;15.40;94.30;;;;;;5015333;28;20468;-75
2021/09/17 01:25:00;;;;;;;11.33;7.37;;;15.40;94.50;;;;;;5023306;28;20488;-76
2021/09/17 01:27:27;;;;;;;8.13;6.93;;;15.30;94.90;;;;;;5031123;28;20479;-76
2021/09/17 01:29:54;;;;;;;9.53;8.63;;;15.30;95.30;;;;;;5030194;28;20491;-75
2021/09/17 01:32:24;;;;;;;8.20;7.13;;;15.20;95.70;;;;;;5023469;28;20460;-75
2021/09/17 01:34:51;;;;;;;9.77;7.82;;;15.10;96.30;;;;;;5015376;28;20320;-75
2021/09/17 01:37:18;;;;;;;9.63;7.55;;;15.00;96.90;;;;;;5016735;28;20760;-75
2021/09/17 01:39:46;;;;;;;8.63;7.78;;;14.90;97.90;;;;;;5018325;28;20240;-75
2021/09/17 01:42:13;;;;;;;8.30;7.50;;;14.80;98.70;;;;;;5015247;28;20302;-74
2021/09/17 01:44:41;;;;;;;8.50;7.70;;;14.80;98.70;;;;;;5014976;28;20235;-75
2021/09/17 01:47:08;;;;;;;8.55;7.75;;;14.60;98.90;;;;;;5014106;28;20208;-76
2021/09/17 01:49:36;;;;;;;11.90;7.75;;;14.50;99.50;;;;;;5013597;28;20327;-75
2021/09/17 01:52:03;;;;;;;8.90;8.10;;;14.40;99.90;;;;;;5013233;28;20290;-76
2021/09/17 01:54:30;;;;;;;9.60;8.10;;;14.40;99.90;;;;;;5015310;28;20300;-75
2021/09/17 01:56:59;;;;;;;8.55;7.65;;;14.40;99.90;;;;;;5014498;28;20571;-74
2021/09/17 01:59:26;;;;;;;9.27;7.43;;;14.40;99.90;;;;;;5021548;28;20307;-74
2021/09/17 02:01:53;;;;;;;8.50;7.55;;;14.40;99.90;;;;;;5012733;28;20738;-75
2021/09/17 02:04:20;;;;;;;11.30;7.68;;;14.30;99.90;;;;;;5013224;28;20239;-75
2021/09/17 02:06:47;;;;;;;8.18;7.47;;;14.20;99.90;;;;;;5012992;28;20285;-75
2021/09/17 02:09:14;;;;;;;9.80;7.80;;;14.20;99.90;;;;;;5012430;28;20629;-74
2021/09/17 02:11:41;;;;;;;8.75;7.90;;;14.10;99.90;;;;;;5012795;28;20227;-75
2021/09/17 02:14:32;;;;;;;11.38;8.95;;;14.00;99.90;;;;;;5012873;28;20772;-75
2021/09/17 02:17:05;;;;;;;9.40;7.88;;;13.90;99.90;;;;;;5015848;28;20238;-73
2021/09/17 02:19:32;;;;;;;9.75;8.75;;;14.00;99.90;;;;;;5014213;28;20716;-74
2021/09/17 02:21:59;;;;;;;12.13;8.20;;;13.90;99.90;;;;;;5027712;28;20294;-74
2021/09/17 02:24:26;;;;;;;14.18;8.45;;;13.90;99.90;;;;;;5028990;28;20214;-74
2021/09/17 02:26:53;;;;;;;10.07;8.40;;;13.80;99.90;;;;;;5019786;28;20225;-74
2021/09/17 02:29:20;;;;;;;10.18;9.18;;;13.80;99.90;;;;;;5012550;28;20326;-74
2021/09/17 02:31:49;;;;;;;14.32;8.73;;;13.70;99.90;;;;;;5021919;28;20204;-74
2021/09/17 02:34:24;;;;;;;15.60;9.40;;;13.70;99.90;;;;;;5018163;28;20223;-74
2021/09/17 02:36:51;;;;;;;10.38;9.00;;;13.60;99.90;;;;;;5014239;28;20271;-76
2021/09/17 02:39:19;;;;;;;10.38;9.38;;;13.60;99.90;;;;;;5012357;28;20270;-76
2021/09/17 02:41:45;;;;;;;11.93;9.07;;;13.60;99.90;;;;;;5012914;28;20814;-75
2021/09/17 02:44:13;;;;;;;14.43;10.23;;;13.60;99.90;;;;;;5012357;28;20586;-76
2021/09/17 02:46:40;;;;;;;11.00;9.30;;;13.60;99.90;;;;;;5012614;28;20216;-75
2021/09/17 02:49:08;;;;;;;12.32;9.85;;;13.60;99.90;;;;;;5012077;28;20267;-74
2021/09/17 02:51:35;;;;;;;11.02;9.65;;;13.50;99.90;;;;;;5012380;28;20188;-76
2021/09/17 02:54:02;;;;;;;10.70;9.52;;;13.50;99.90;;;;;;5012774;28;20734;-76
2021/09/17 02:56:29;;;;;;;11.57;10.20;;;13.40;99.90;;;;;;5013153;28;20246;-74
2021/09/17 02:58:55;;;;;;;10.50;9.40;;;13.30;99.90;;;;;;5012513;28;20235;-74
2021/09/17 03:01:22;;;;;;;10.57;9.48;;;13.30;99.90;;;;;;5013043;28;20742;-74
2021/09/17 03:03:49;;;;;;;23.00;10.40;;;13.20;99.90;;;;;;5016325;28;20639;-74
2021/09/17 03:06:18;;;;;;;11.63;9.48;;;13.20;99.90;;;;;;5012313;28;20286;-74
2021/09/17 03:08:45;;;;;;;12.20;9.80;;;13.20;99.90;;;;;;5011815;28;20255;-75
2021/09/17 03:11:11;;;;;;;10.77;9.55;;;13.20;99.90;;;;;;5011999;28;20290;-74
2021/09/17 03:13:38;;;;;;;14.10;9.13;;;13.20;99.90;;;;;;5012199;28;20668;-75
2021/09/17 03:16:07;;;;;;;10.93;9.82;;;13.20;99.90;;;;;;5012226;28;20645;-74
2021/09/17 03:18:34;;;;;;;11.65;8.70;;;13.10;99.90;;;;;;5012014;28;20224;-74
2021/09/17 03:21:01;;;;;;;11.75;9.65;;;13.10;99.90;;;;;;5011426;28;20294;-75
2021/09/17 03:23:29;;;;;;;10.90;9.57;;;13.10;99.90;;;;;;5012229;28;20616;-74
2021/09/17 03:25:57;;;;;;;10.25;9.20;;;13.20;99.90;;;;;;5012077;28;20246;-74
2021/09/17 03:28:24;;;;;;;10.85;9.35;;;13.20;99.90;;;;;;4993473;28;20232;-76
2021/09/17 03:30:51;;;;;;;13.52;9.70;;;13.20;99.90;;;;;;4995579;28;20235;-76
2021/09/17 03:33:18;;;;;;;10.98;9.88;;;13.10;99.90;;;;;;5014811;28;20287;-76
2021/09/17 03:35:45;;;;;;;10.13;9.13;;;13.10;99.90;;;;;;5015007;28;20236;-76
2021/09/17 03:38:12;;;;;;;9.35;8.35;;;13.00;99.90;;;;;;5015589;28;20318;-76
2021/09/17 03:40:41;;;;;;;9.40;8.50;;;13.00;99.90;;;;;;5014795;28;20747;-76
2021/09/17 03:43:08;;;;;;;11.65;9.15;;;13.00;99.90;;;;;;5015436;28;20290;-76
2021/09/17 03:45:36;;;;;;;15.23;9.65;;;13.00;99.90;;;;;;5015179;28;20258;-76
2021/09/17 03:48:05;;;;;;;9.32;8.43;;;13.00;99.90;;;;;;5015050;28;20228;-75
2021/09/17 03:50:32;;;;;;;10.63;9.63;;;13.00;99.90;;;;;;5014693;28;20212;-75
2021/09/17 03:52:59;;;;;;;9.32;8.40;;;13.00;99.90;;;;;;5015292;28;20215;-75
2021/09/17 03:55:26;;;;;;;10.13;9.07;;;12.90;99.90;;;;;;5015113;28;20227;-75
2021/09/17 03:57:56;;;;;;;10.68;9.57;;;12.90;99.90;;;;;;5015014;28;20286;-75
2021/09/17 04:00:23;;;;;;;10.90;9.27;;;12.90;99.90;;;;;;5014882;28;20295;-76
2021/09/17 04:02:49;;;;;;;10.68;8.88;;;12.80;99.90;;;;;;5015158;28;20334;-76
2021/09/17 04:05:16;;;;;;;10.75;9.60;;;12.80;99.90;;;;;;5016627;28;20286;-76
2021/09/17 04:07:45;;;;;;;8.80;8.00;;;12.70;99.90;;;;;;5016683;28;20291;-76
2021/09/17 04:10:15;;;;;;;12.88;8.90;;;12.70;99.90;;;;;;5015941;28;20274;-76
2021/09/17 04:12:42;;;;;;;9.50;8.10;;;12.70;99.90;;;;;;5016731;28;20204;-76
2021/09/17 04:15:12;;;;;;;9.43;8.52;;;12.60;99.90;;;;;;5016232;28;20326;-75
2021/09/17 04:17:39;;;;;;;9.30;8.27;;;12.60;99.90;;;;;;5016310;28;20210;-76
2021/09/17 04:20:07;;;;;;;8.70;8.00;;;12.60;99.90;;;;;;5015331;28;20314;-75
2021/09/17 04:22:34;;;;;;;13.48;8.35;;;12.60;99.90;;;;;;5016040;28;20206;-74
2021/09/17 04:25:01;;;;;;;9.35;8.45;;;12.50;99.90;;;;;;5019308;28;20290;-76
2021/09/17 04:27:28;;;;;;;11.35;8.70;;;12.50;99.90;;;;;;5019161;28;20232;-76
2021/09/17 04:29:55;;;;;;;12.02;9.10;;;12.50;99.90;;;;;;5018764;28;20242;-76
2021/09/17 04:32:23;;;;;;;11.75;9.23;;;12.50;99.90;;;;;;5019214;28;20293;-76
2021/09/17 04:34:50;;;;;;;8.73;7.90;;;12.50;99.90;;;;;;5016045;28;20247;-76
2021/09/17 04:37:18;;;;;;;10.57;8.00;;;12.50;99.90;;;;;;5016510;28;20211;-75
2021/09/17 04:39:45;;;;;;;10.75;8.55;;;12.60;99.90;;;;;;5029547;28;20245;-76
2021/09/17 04:42:12;;;;;;;11.18;9.35;;;12.70;99.90;;;;;;5025073;28;20660;-76
2021/09/17 04:44:39;;;;;;;9.30;8.40;;;12.70;99.90;;;;;;5014931;28;20290;-75
2021/09/17 04:47:06;;;;;;;10.27;9.27;;;12.70;99.90;;;;;;5015106;28;20574;-75
2021/09/17 04:49:34;;;;;;;10.23;8.90;;;12.80;99.90;;;;;;5014722;28;20322;-76
2021/09/17 04:52:01;;;;;;;10.40;9.35;;;12.80;99.90;;;;;;5027728;28;20196;-74
2021/09/17 04:54:28;;;;;;;9.68;8.75;;;12.90;99.90;;;;;;5035977;28;20251;-75
2021/09/17 04:56:55;;;;;;;14.38;9.05;;;13.00;99.90;;;;;;5037272;28;20213;-76
2021/09/17 04:59:22;;;;;;;11.02;9.05;;;13.00;99.90;;;;;;5037273;28;20203;-74
2021/09/17 05:01:49;;;;;;;10.50;8.57;;;13.00;99.90;;;;;;5023785;28;20249;-76
2021/09/17 05:04:16;;;;;;;11.95;9.15;;;13.10;99.90;;;;;;5017770;28;20236;-76
2021/09/17 05:06:44;;;;;;;11.57;9.32;;;13.10;99.90;;;;;;5016182;28;20204;-74
2021/09/17 05:09:11;;;;;;;13.10;9.23;;;13.20;99.90;;;;;;5016435;28;20278;-75
2021/09/17 05:11:38;;;;;;;10.57;9.50;;;13.20;99.90;;;;;;5032894;28;20271;-76
2021/09/17 05:14:07;;;;;;;10.52;9.05;;;13.30;99.90;;;;;;5026775;28;20306;-76
2021/09/17 05:16:34;;;;;;;10.13;8.50;;;13.30;99.90;;;;;;5015859;28;20254;-75
2021/09/17 05:19:03;;;;;;;10.15;9.07;;;13.30;99.90;;;;;;5014695;28;20707;-77
2021/09/17 05:21:30;;;;;;;9.00;8.10;;;13.40;99.90;;;;;;5014539;28;20237;-77
2021/09/17 05:23:59;;;;;;;12.65;8.65;;;13.50;99.90;;;;;;5014296;28;20254;-76
2021/09/17 05:26:25;;;;;;;11.88;8.13;;;13.60;99.90;;;;;;5014534;28;20218;-76
2021/09/17 05:28:52;;;;;;;8.73;7.28;;;13.70;99.90;;;;;;5013462;28;20220;-76
2021/09/17 05:31:19;;;;;;;10.00;8.60;;;13.70;99.90;;;;;;5014611;28;20299;-76
2021/09/17 05:33:46;;;;;;;10.32;7.80;;;13.60;99.90;;;;;;5014417;28;20254;-76
2021/09/17 05:36:13;;;;;;;12.50;7.50;;;13.60;99.90;;;;;;5015213;28;20342;-76
2021/09/17 05:38:41;;;;;;;11.65;7.75;;;13.60;99.90;;;;;;5013989;28;20224;-75
2021/09/17 05:41:09;;;;;;;9.13;7.35;;;13.70;99.90;;;;;;5014886;28;20200;-77
2021/09/17 05:43:36;;;;;;;8.77;7.85;;;13.70;99.90;;;;;;5014931;28;20204;-77
2021/09/17 05:46:03;;;;;;;8.55;7.55;;;13.80;99.90;;;;;;5015482;28;20314;-77
2021/09/17 05:48:30;;;;;;;8.00;7.20;;;13.90;99.90;;;;;;5014711;28;20274;-76
2021/09/17 05:50:57;;;;;;;8.73;7.30;;;14.00;99.90;;;;;;5014026;28;20613;-76
2021/09/17 05:53:24;;;;;;;7.93;7.22;;;14.00;99.90;;;;;;5015675;28;20222;-76
2021/09/17 05:55:50;;;;;;;7.95;6.60;;;14.20;99.90;;;;;;5017119;28;20330;-77
2021/09/17 05:58:19;;;;;;;8.10;7.30;;;14.20;99.90;;;;;;5014485;28;20259;-76
2021/09/17 06:00:46;;;;;;;10.35;6.13;;;14.30;99.90;;;;;;5026866;28;20271;-76
2021/09/17 06:03:13;;;;;;;7.27;6.60;;;14.40;99.90;;;;;;5032113;28;20208;-74
2021/09/17 06:05:40;;;;;;;8.98;6.80;;;14.50;99.90;;;;;;5024300;28;20452;-76
2021/09/17 06:08:06;;;;;;;6.47;5.77;;;14.60;99.90;;;;;;5017872;28;20236;-78
2021/09/17 06:10:34;;;;;;;8.60;6.60;;;14.70;99.90;;;;;;5020053;28;20489;-76
2021/09/17 06:13:00;;;;;;;10.07;6.43;;;14.80;99.90;;;;;;5020063;28;20211;-78
2021/09/17 06:15:29;;;;;;;6.68;6.07;;;14.90;99.90;;;;;;5018076;28;20255;-79
2021/09/17 06:17:56;;;;;;;9.37;6.07;;;15.00;99.10;;;;;;5027469;28;20236;-75
2021/09/17 06:20:23;;;;;;;6.73;6.03;;;15.10;98.40;;;;;;5025654;28;20489;-77
2021/09/17 06:22:53;;;;;;;10.47;6.47;;;15.30;97.00;;;;;;5014516;28;20854;-77
2021/09/17 06:25:21;;;;;;;7.13;6.40;;;15.40;95.30;;;;;;5031820;28;20460;-75
2021/09/17 06:27:49;;;;;;;9.70;6.80;;;15.50;94.10;;;;;;5030561;28;20496;-75
2021/09/17 06:30:17;;;;;;;10.70;6.40;;;15.50;92.90;;;;;;5031180;28;20528;-77
2021/09/17 06:32:45;;;;;;;6.67;6.10;;;15.60;92.10;;;;;;5018475;28;20457;-78
2021/09/17 06:35:13;;;;;;;7.15;6.10;;;15.20;93.40;;;;;;5019416;28;20488;-77
2021/09/17 06:37:51;;;;;;;6.88;6.28;;;15.10;94.90;;;;;;5019091;28;21941;-79
2021/09/17 06:40:19;;;;;;;7.20;6.50;;;14.90;95.70;;;;;;5017679;28;20208;-78
2021/09/17 06:42:47;;;;;;;7.18;6.47;;;14.90;96.90;;;;;;5029851;28;20228;-77
2021/09/17 06:45:14;;;;;;;9.60;6.78;;;15.00;97.20;;;;;;5019127;28;20239;-75
2021/09/17 06:47:48;;;;;;;6.97;6.37;;;15.10;96.60;;;;;;5031901;28;20239;-78
2021/09/17 06:50:16;;;;;;;6.13;5.53;;;15.10;97.20;;;;;;5029659;28;20465;-77
2021/09/17 06:52:47;;;;;;;9.30;6.07;;;15.30;96.50;;;;;;5022979;28;20221;-75
2021/09/17 06:55:15;;;;;;;6.37;5.80;;;15.50;94.90;;;;;;5019717;28;20481;-76
2021/09/17 06:57:47;;;;;;;6.97;6.37;;;15.30;93.50;;;;;;5014430;28;20518;-77
2021/09/17 07:00:15;;;;;;;11.27;6.43;;;15.10;95.10;;;;;;5015216;28;20559;-75
2021/09/17 07:02:43;;;;;;;7.35;6.75;;;15.10;95.50;;;;;;5030095;28;20219;-75
2021/09/17 07:05:12;;;;;;;7.40;6.63;;;15.20;95.00;;;;;;5035194;28;20353;-76
2021/09/17 07:07:39;;;;;;;7.47;6.73;;;15.20;94.20;;;;;;5037343;28;20220;-75
2021/09/17 07:10:09;;;;;;;11.63;7.38;;;15.30;93.50;;;;;;5037724;28;20509;-75
2021/09/17 07:12:36;;;;;;;10.80;6.53;;;15.50;92.90;;;;;;5037687;28;20259;-76
2021/09/17 07:15:04;;;;;;;10.53;6.60;;;15.50;92.30;;;;;;5030409;28;20782;-76
2021/09/17 07:17:31;;;;;;;6.07;5.57;;;15.80;91.50;;;;;;5021487;28;20952;-77
2021/09/17 07:19:59;;;;;;;10.17;6.83;;;15.90;90.00;;;;;;5018555;28;20500;-76
2021/09/17 07:22:28;;;;;;;7.00;6.30;;;15.60;90.90;;;;;;5019149;28;20455;-76
2021/09/17 07:24:55;;;;;;;7.40;5.87;;;15.60;92.00;;;;;;5017558;28;20453;-76
2021/09/17 07:27:22;;;;;;;7.70;5.93;;;15.60;93.20;;;;;;5018087;28;20459;-75
2021/09/17 07:29:49;;;;;;;8.47;6.23;;;15.90;91.30;;;;;;5022808;28;20496;-78
2021/09/17 07:32:16;;;;;;;7.20;6.57;;;15.80;91.60;;;;;;5024176;28;20471;-80
2021/09/17 07:34:43;;;;;;;7.97;7.27;;;15.90;92.00;;;;;;5022897;28;20504;-77
2021/09/17 07:37:10;;;;;;;10.10;6.77;;;15.90;90.00;;;;;;5027310;28;20953;-75
2021/09/17 07:39:38;;;;;;;7.20;6.60;;;16.00;90.00;;;;;;5029229;28;20484;-76
2021/09/17 07:42:07;;;;;;;8.20;6.20;;;16.00;90.00;;;;;;5033394;28;20459;-76
2021/09/17 07:44:34;;;;;;;8.70;5.93;;;16.40;88.10;;;;;;5030714;28;20461;-77
2021/09/17 07:47:02;;;;;;;10.33;5.90;;;16.30;84.60;;;;;;5031564;28;20486;-77
2021/09/17 07:49:29;;;;;;;7.37;6.67;;;16.60;85.00;;;;;;5034801;28;20492;-75
2021/09/17 07:51:56;;;;;;;6.90;6.30;;;16.80;82.50;;;;;;5027877;28;20874;-77
2021/09/17 07:54:23;;;;;;;7.80;7.10;;;16.60;82.30;;;;;;5029754;28;20985;-77
2021/09/17 07:56:52;;;;;;;10.40;8.10;;;16.40;84.10;;;;;;5027620;28;20489;-77
2021/09/17 07:59:19;;;;;;;10.03;6.80;;;16.50;85.80;;;;;;5029479;28;20477;-78
2021/09/17 08:01:46;;;;;;;6.80;5.97;;;16.80;82.50;;;;;;5022187;28;20456;-78
2021/09/17 08:04:13;;;;;;;12.50;7.20;;;16.80;82.50;;;;;;5023164;28;20479;-77
2021/09/17 08:06:41;;;;;;;9.67;7.73;;;16.80;81.30;;;;;;5020185;28;20514;-78
2021/09/17 08:09:08;;;;;;;9.50;7.30;;;16.80;81.10;;;;;;5020956;28;21006;-77
2021/09/17 08:11:36;;;;;;;12.13;6.83;;;16.70;82.40;;;;;;5020580;28;20462;-78
2021/09/17 08:14:05;;;;;;;6.90;6.00;;;16.80;82.50;;;;;;5022058;28;20454;-78
2021/09/17 08:16:32;;;;;;;9.67;6.10;;;17.20;80.50;;;;;;5021281;28;20550;-78
2021/09/17 08:18:59;;;;;;;8.07;7.27;;;17.30;78.10;;;;;;5023490;28;20474;-78
2021/09/17 08:21:26;;;;;;;6.73;5.93;;;17.40;78.20;;;;;;5026793;28;20519;-78
2021/09/17 08:23:53;;;;;;;7.63;6.00;;;17.60;76.00;;;;;;5025993;28;20460;-79
2021/09/17 08:26:20;;;;;;;11.50;7.20;;;17.70;75.00;;;;;;5025795;28;20446;-77
2021/09/17 08:28:47;;;;;;;12.83;6.90;;;17.60;74.50;;;;;;5024299;28;20545;-77
2021/09/17 08:31:15;;;;;;;10.70;7.23;;;17.30;76.20;;;;;;5026965;28;20848;-78
2021/09/17 08:33:43;;;;;;;8.10;6.13;;;17.50;76.00;;;;;;5025730;28;20459;-78
2021/09/17 08:36:10;;;;;;;6.30;5.70;;;18.00;72.60;;;;;;5025873;28;20490;-77
2021/09/17 08:38:38;;;;;;;6.17;5.33;;;17.80;72.80;;;;;;5023579;28;20474;-76
2021/09/17 08:41:05;;;;;;;6.37;5.77;;;18.10;71.70;;;;;;5022192;28;20465;-77
2021/09/17 08:43:32;;;;;;;6.07;5.47;;;18.50;68.90;;;;;;5015965;28;20994;-76
2021/09/17 08:45:59;;;;;;;5.80;5.30;;;18.70;67.30;;;;;;5014537;28;20508;-77
2021/09/17 08:48:29;;;;;;;9.70;6.47;;;18.80;66.50;;;;;;5020448;28;20513;-77
2021/09/17 08:50:56;;;;;;;6.63;5.97;;;19.00;64.60;;;;;;5015657;28;20459;-77
2021/09/17 08:53:24;;;;;;;11.93;6.00;;;18.60;65.70;;;;;;5015879;28;20478;-76
2021/09/17 08:55:51;;;;;;;6.40;5.10;;;18.20;68.20;;;;;;5019371;28;20513;-77
2021/09/17 08:58:18;;;;;;;7.63;6.00;;;18.30;69.80;;;;;;5015138;28;20904;-76
2021/09/17 09:00:46;;;;;;;6.60;5.90;;;18.80;67.60;;;;;;5018652;28;20555;-76
2021/09/17 09:03:29;;;;;;;10.67;6.20;;;18.90;64.70;;;;;;5017837;28;20466;-77
2021/09/17 09:05:56;;;;;;;15.07;7.17;;;18.60;66.50;;;;;;5022484;28;20483;-77
2021/09/17 09:08:25;;;;;;;8.97;6.60;;;18.50;66.40;;;;;;5015427;28;20479;-75
2021/09/17 09:10:53;;;;;;;8.30;6.17;;;18.60;66.50;;;;;;5017452;28;20458;-76
2021/09/17 09:13:21;;;;;;;8.40;6.63;;;19.20;63.60;;;;;;5010397;28;21089;-77
2021/09/17 09:15:48;;;;;;;8.30;6.30;;;19.40;62.60;;;;;;5013037;28;20953;-76
2021/09/17 09:18:18;;;;;;;39.87;9.17;;;19.90;60.00;;;;;;5014320;28;20513;-75
2021/09/17 09:20:47;;;;;;;9.43;7.03;;;19.40;59.10;;;;;;5013052;28;20456;-76
2021/09/17 09:23:17;;;;;;;7.57;6.77;;;19.70;58.60;;;;;;5012404;28;20456;-72
2021/09/17 09:25:53;;;;;;;20.07;7.97;;;19.90;58.50;;;;;;5011038;28;20453;-76
2021/09/17 09:28:23;;;;;;;10.10;7.23;;;20.20;57.40;;;;;;5011833;28;20545;-76
2021/09/17 09:30:51;;;;;;;10.80;8.07;;;19.60;58.20;;;;;;5012165;28;20540;-77
2021/09/17 09:33:23;;;;;;;8.33;7.17;;;19.60;58.20;;;;;;5012782;28;20461;-78
2021/09/17 09:36:14;;;;;;;9.33;8.17;;;20.00;56.80;;;;;;5022167;28;20520;-74
2021/09/17 09:38:44;;;;;;;14.17;7.73;;;19.90;56.80;;;;;;5014595;28;20535;-74
2021/09/17 09:41:13;;;;;;;10.83;7.30;;;20.10;56.40;;;;;;5005370;28;20457;-75
2021/09/17 09:43:48;;;;;;;7.63;6.90;;;20.30;55.50;;;;;;5011491;28;20801;-71
2021/09/17 09:46:27;;;;;;;9.47;7.33;;;20.50;54.40;;;;;;5011588;28;20550;-76
2021/09/17 09:49:06;;;;;;;7.80;7.00;;;20.40;54.20;;;;;;5012427;28;20465;-71
2021/09/17 09:51:36;;;;;;;12.00;8.90;;;20.50;54.30;;;;;;5013271;28;20466;-71
2021/09/17 09:54:05;;;;;;;24.00;10.93;;;19.90;54.40;;;;;;5013415;28;20558;-72
2021/09/17 09:56:32;;;;;;;9.03;8.23;;;19.10;56.90;;;;;;5017439;28;20523;-73
2021/09/17 09:59:02;;;;;;;8.30;6.70;;;19.50;56.70;;;;;;5016071;28;20905;-73
2021/09/17 10:01:35;;;;;;;9.63;8.07;;;20.00;55.80;;;;;;5014734;28;20892;-77
2021/09/17 10:04:04;;;;;;;8.07;7.37;;;20.30;54.80;;;;;;5025226;28;20852;-77
2021/09/17 10:06:35;;;;;;;9.07;8.10;;;20.60;53.30;;;;;;5017014;28;20553;-74
2021/09/17 10:09:02;;;;;;;11.30;7.03;;;20.60;52.60;;;;;;5015873;28;20486;-72
2021/09/17 10:11:29;;;;;;;8.53;7.00;;;21.10;51.30;;;;;;5014379;28;20451;-77
2021/09/17 10:13:59;;;;;;;7.60;6.47;;;21.60;50.40;;;;;;5015897;28;20450;-72
2021/09/17 10:16:27;;;;;;;13.60;7.10;;;21.90;49.50;;;;;;5016235;28;20501;-74
2021/09/17 10:18:56;;;;;;;11.70;6.50;;;21.90;47.10;;;;;;5016580;28;20556;-73
2021/09/17 10:21:58;;;;;;;10.70;6.93;;;20.90;49.70;;;;;;5017411;28;20436;-72
2021/09/17 10:24:46;;;;;;;7.20;6.27;;;20.90;51.30;;;;;;5016731;28;20452;-74
2021/09/17 10:27:25;;;;;;;8.37;7.50;;;21.70;49.40;;;;;;5022638;28;20481;-72
2021/09/17 10:30:00;;;;;;;7.80;6.83;;;21.40;48.40;;;;;;5023263;28;20457;-75
2021/09/17 10:32:40;;;;;;;10.80;7.70;;;21.30;49.00;;;;;;5022955;28;20460;-72
2021/09/17 10:35:11;;;;;;;8.23;6.83;;;20.80;49.60;;;;;;5016127;28;20962;-74
2021/09/17 10:38:06;;;;;;;7.40;6.17;;;20.40;49.20;;;;;;5021368;28;20489;-73
2021/09/17 10:40:52;;;;;;;7.20;6.50;;;21.00;48.30;;;;;;5022126;28;20868;-74
2021/09/17 10:43:43;;;;;;;7.77;6.70;;;21.10;47.40;;;;;;5028363;28;20470;-72
2021/09/17 10:46:29;;;;;;;7.20;6.50;;;20.80;49.60;;;;;;5041315;28;20448;-72
2021/09/17 10:48:57;;;;;;;6.13;5.53;;;21.40;48.00;;;;;;5040222;28;20555;-72
2021/09/17 10:51:33;;;;;;;7.13;5.93;;;21.90;46.40;;;;;;5041705;28;20489;-71
2021/09/17 10:54:04;;;;;;;7.37;5.37;;;21.80;45.70;;;;;;5035484;28;20450;-72
2021/09/17 10:57:05;;;;;;;7.87;6.03;;;22.20;46.00;;;;;;5021699;28;20489;-73
2021/09/17 10:59:50;;;;;;;7.87;6.30;;;22.00;44.00;;;;;;5020639;28;20466;-72
2021/09/17 11:02:17;;;;;;;8.27;5.00;;;21.50;45.30;;;;;;5021191;28;20450;-73
2021/09/17 11:04:46;;;;;;;6.10;5.60;;;21.80;44.50;;;;;;5021161;28;20417;-73
2021/09/17 11:07:34;;;;;;;7.47;5.80;;;22.40;43.10;;;;;;5022245;28;20424;-71
2021/09/17 11:10:08;;;;;;;11.10;6.30;;;22.00;44.60;;;;;;5023972;28;20450;-73
2021/09/17 11:12:37;;;;;;;5.33;4.63;;;21.30;46.40;;;;;;5022261;28;20797;-74
2021/09/17 11:15:10;;;;;;;7.37;4.73;;;21.90;45.70;;;;;;5022873;28;20986;-73
2021/09/17 11:17:46;;;;;;;5.60;5.03;;;22.30;42.60;;;;;;5022385;28;20539;-72
2021/09/17 11:20:17;;;;;;;8.00;5.60;;;22.00;45.70;;;;;;5020894;28;20561;-71
2021/09/17 11:22:56;;;;;;;7.80;7.03;;;21.90;45.10;;;;;;5027114;28;20454;-73
2021/09/17 11:25:29;;;;;;;9.40;6.33;;;21.00;47.70;;;;;;5041101;28;20416;-71
2021/09/17 11:27:56;;;;;;;6.80;5.60;;;20.90;48.10;;;;;;5040086;28;20460;-74
2021/09/17 11:30:24;;;;;;;8.00;4.70;;;21.50;43.60;;;;;;5031285;28;20429;-75
2021/09/17 11:32:52;;;;;;;15.20;6.40;;;20.70;42.60;;;;;;5022549;28;20870;-74
2021/09/17 11:35:19;;;;;;;4.57;4.17;;;20.80;44.80;;;;;;5022333;28;20548;-73
2021/09/17 11:37:54;;;;;;;5.17;4.77;;;20.60;43.50;;;;;;5022250;28;20493;-75
2021/09/17 11:40:22;;;;;;;4.73;4.33;;;21.20;42.80;;;;;;5019717;28;20549;-74
2021/09/17 11:42:50;;;;;;;7.10;4.90;;;21.70;40.40;;;;;;5020719;28;20535;-75
2021/09/17 11:45:18;;;;;;;7.90;4.73;;;22.10;42.10;;;;;;5020209;28;20936;-73
2021/09/17 11:47:48;;;;;;;5.53;4.50;;;21.80;43.60;;;;;;5023996;28;20502;-73
2021/09/17 11:50:16;;;;;;;6.30;4.43;;;21.70;42.00;;;;;;5018438;28;20462;-72
2021/09/17 11:52:45;;;;;;;7.03;4.60;;;21.70;41.70;;;;;;5017754;28;20539;-72
2021/09/17 11:55:15;;;;;;;4.63;4.23;;;21.10;39.80;;;;;;5016555;28;20438;-73
2021/09/17 11:57:44;;;;;;;5.63;4.57;;;21.20;42.20;;;;;;5016417;28;20495;-72
2021/09/17 12:00:15;;;;;;;4.53;3.87;;;21.00;42.80;;;;;;5018136;28;20457;-72
2021/09/17 12:02:42;;;;;;;4.53;4.23;;;21.10;43.20;;;;;;5017039;28;20959;-72
2021/09/17 12:05:14;;;;;;;5.97;3.73;;;21.60;40.40;;;;;;5017024;28;20937;-71
2021/09/17 12:07:42;;;;;;;6.20;3.90;;;22.20;38.60;;;;;;5015839;28;20557;-72
2021/09/17 12:10:12;;;;;;;4.23;3.83;;;22.50;37.70;;;;;;5016642;28;20462;-73
2021/09/17 12:12:41;;;;;;;4.03;3.63;;;22.20;39.30;;;;;;5017302;28;20486;-72
2021/09/17 12:15:40;;;;;;;5.03;3.73;;;22.20;40.90;;;;;;5015576;28;20425;-73
2021/09/17 12:18:09;;;;;;;3.87;3.57;;;22.60;40.30;;;;;;5016086;28;20461;-73
2021/09/17 12:20:45;;;;;;;5.80;3.90;;;22.60;39.00;;;;;;5016092;28;20516;-73
2021/09/17 12:23:14;;;;;;;5.17;3.20;;;22.60;37.00;;;;;;5017625;28;20491;-73
2021/09/17 12:25:42;;;;;;;3.40;3.03;;;22.70;37.00;;;;;;5015961;28;20856;-74
2021/09/17 12:28:11;;;;;;;7.60;3.93;;;22.00;37.20;;;;;;5015589;28;20470;-72
2021/09/17 12:30:39;;;;;;;3.70;3.30;;;21.30;37.70;;;;;;5015326;28;20856;-72
2021/09/17 12:33:16;;;;;;;5.80;3.37;;;21.50;37.20;;;;;;5015398;28;20896;-72
2021/09/17 12:35:44;;;;;;;3.40;2.37;;;21.50;35.00;;;;;;5018296;28;20660;-74
2021/09/17 12:38:12;;;;;;;3.50;2.33;;;21.10;33.90;;;;;;5017752;28;20771;-73
2021/09/17 12:40:40;;;;;;;3.00;2.60;;;21.30;35.40;;;;;;5016734;28;20463;-75
2021/09/17 12:43:09;;;;;;;3.40;3.10;;;21.00;37.10;;;;;;5017148;28;20435;-73
2021/09/17 12:45:41;;;;;;;3.37;3.10;;;20.80;39.50;;;;;;5016310;28;20877;-73
2021/09/17 12:48:09;;;;;;;3.57;3.07;;;20.80;39.50;;;;;;5015499;28;20485;-75
2021/09/17 12:50:39;;;;;;;2.93;2.73;;;20.70;39.50;;;;;;5015866;28;20822;-73
2021/09/17 12:53:11;;;;;;;3.27;3.07;;;20.80;39.60;;;;;;5015504;28;20501;-73